Time;durP1;ratioP1;P1;durP2;ratioP2;P2;SDS_P1;SDS_P2;PMS_P1;PMS_P2;Temp;Humidity;BMP_temperature;BMP_pressure;BME280_temperature;BME280_humidity;BME280_pressure;Samples;Min_cycle;Max_cycle;Signal;HPM_P1;HPM_P2
2023/10/25 00:00:47;;;;;;;6.67;3.57;;;;;;;12.61;100.00;99681.63;5063159;28;20479;-64
2023/10/25 00:03:16;;;;;;;8.03;4.50;;;;;;;12.66;100.00;99683.63;5072213;28;21044;-64
2023/10/25 00:05:46;;;;;;;9.87;5.40;;;;;;;12.42;100.00;99678.31;5069577;28;20426;-65
2023/10/25 00:08:15;;;;;;;7.27;5.53;;;;;;;12.55;100.00;99680.72;5071030;28;20948;-64
2023/10/25 00:10:45;;;;;;;8.93;5.77;;;;;;;12.57;100.00;99675.88;5072351;28;20455;-64
2023/10/25 00:13:14;;;;;;;8.07;4.60;;;;;;;12.55;100.00;99688.88;5068015;28;20433;-65
2023/10/25 00:15:43;;;;;;;7.30;4.80;;;;;;;12.47;100.00;99686.56;5066247;28;20943;-63
2023/10/25 00:18:12;;;;;;;7.80;5.07;;;;;;;12.39;100.00;99684.22;5068963;28;20405;-64
2023/10/25 00:20:41;;;;;;;6.60;4.67;;;;;;;12.33;100.00;99679.78;5069730;28;20458;-65
2023/10/25 00:23:09;;;;;;;7.47;4.30;;;;;;;12.42;100.00;99688.34;5068887;28;20424;-65
2023/10/25 00:25:40;;;;;;;6.37;4.67;;;;;;;12.38;100.00;99688.03;5074385;28;20951;-63
2023/10/25 00:28:08;;;;;;;11.13;5.90;;;;;;;12.32;100.00;99680.84;5067955;28;20923;-64
2023/10/25 00:30:38;;;;;;;6.63;4.27;;;;;;;12.36;100.00;99684.72;5077037;28;20509;-65
2023/10/25 00:33:06;;;;;;;8.90;4.50;;;;;;;12.48;100.00;99690.09;5074306;28;20499;-65
2023/10/25 00:35:35;;;;;;;5.53;3.83;;;;;;;12.50;100.00;99691.47;5063772;28;20432;-65
2023/10/25 00:38:04;;;;;;;8.83;5.20;;;;;;;12.54;100.00;99692.63;5073315;28;20476;-65
2023/10/25 00:40:33;;;;;;;7.17;5.00;;;;;;;12.50;100.00;99688.78;5061278;28;20513;-65
2023/10/25 00:43:16;;;;;;;4.47;3.50;;;;;;;12.47;100.00;99685.72;5074763;28;20428;-65
2023/10/25 00:46:06;;;;;;;6.27;4.60;;;;;;;12.52;100.00;99689.38;5069362;28;20440;-65
2023/10/25 00:48:36;;;;;;;8.00;3.40;;;;;;;12.55;100.00;99691.56;5063748;28;20767;-65
2023/10/25 00:51:05;;;;;;;6.30;3.70;;;;;;;12.56;100.00;99681.53;5068447;28;20431;-64
2023/10/25 00:53:37;;;;;;;8.23;5.40;;;;;;;12.47;100.00;99677.59;5066388;28;20512;-64
2023/10/25 00:56:08;;;;;;;6.23;4.80;;;;;;;12.30;100.00;99674.81;5067773;28;20882;-63
2023/10/25 00:58:42;;;;;;;9.33;4.70;;;;;;;12.24;100.00;99675.00;5064210;28;20943;-65
2023/10/25 01:01:11;;;;;;;6.83;3.40;;;;;;;12.29;100.00;99683.22;5069728;28;20449;-65
2023/10/25 01:03:41;;;;;;;6.43;4.40;;;;;;;12.22;100.00;99677.09;5059068;28;20491;-64
2023/10/25 01:06:10;;;;;;;4.77;3.00;;;;;;;12.21;100.00;99676.28;5069950;28;20416;-65
2023/10/25 01:08:39;;;;;;;7.50;3.90;;;;;;;12.16;100.00;99674.31;5070313;28;20483;-65
2023/10/25 01:11:09;;;;;;;4.97;3.30;;;;;;;12.33;100.00;99670.81;5068794;28;20438;-65
2023/10/25 01:13:39;;;;;;;5.97;4.20;;;;;;;12.35;100.00;99666.78;5070945;28;20524;-64
2023/10/25 01:16:08;;;;;;;8.77;5.20;;;;;;;12.43;100.00;99663.69;5078361;28;21010;-64
2023/10/25 01:18:38;;;;;;;6.50;3.90;;;;;;;12.44;100.00;99664.53;5062819;28;20425;-65
2023/10/25 01:21:06;;;;;;;8.20;4.00;;;;;;;12.45;100.00;99653.41;5066989;28;20425;-64
2023/10/25 01:23:36;;;;;;;4.27;3.80;;;;;;;12.44;100.00;99664.53;5072094;28;20539;-64
2023/10/25 01:26:05;;;;;;;6.27;3.70;;;;;;;12.47;100.00;99658.59;5065520;28;20393;-64
2023/10/25 01:28:34;;;;;;;5.53;3.80;;;;;;;12.41;100.00;99671.25;5070909;28;20417;-65
2023/10/25 01:31:03;;;;;;;4.63;2.90;;;;;;;12.39;100.00;99667.94;5068691;28;20771;-65
2023/10/25 01:33:32;;;;;;;5.43;3.20;;;;;;;12.33;100.00;99662.69;5070355;28;20492;-65
2023/10/25 01:36:01;;;;;;;7.80;4.27;;;;;;;12.39;100.00;99661.72;5073149;28;20818;-65
2023/10/25 01:38:31;;;;;;;3.10;2.80;;;;;;;12.32;100.00;99663.75;5070447;28;20431;-64
2023/10/25 01:41:01;;;;;;;4.57;3.03;;;;;;;12.29;100.00;99669.66;5066915;28;20419;-65
2023/10/25 01:43:30;;;;;;;4.20;2.63;;;;;;;12.35;100.00;99661.34;5067954;28;20459;-65
2023/10/25 01:45:59;;;;;;;4.00;3.60;;;;;;;12.31;100.00;99665.63;5067697;28;20427;-65
2023/10/25 01:48:28;;;;;;;4.40;3.30;;;;;;;12.40;100.00;99664.16;5063633;28;20523;-64
2023/10/25 01:50:57;;;;;;;6.77;3.87;;;;;;;12.43;100.00;99668.28;5074530;28;20407;-64
2023/10/25 01:53:27;;;;;;;2.83;2.43;;;;;;;12.25;100.00;99666.59;5066085;28;20457;-65
2023/10/25 01:55:57;;;;;;;3.97;3.07;;;;;;;12.18;100.00;99671.34;5067445;28;20438;-66
2023/10/25 01:58:27;;;;;;;5.83;3.40;;;;;;;12.24;100.00;99669.56;5067967;28;20856;-64
2023/10/25 02:00:56;;;;;;;4.90;3.20;;;;;;;12.16;100.00;99668.88;5066588;28;20443;-64
2023/10/25 02:03:25;;;;;;;5.90;3.70;;;;;;;12.16;100.00;99673.47;5066038;28;20489;-65
2023/10/25 02:05:54;;;;;;;7.00;4.70;;;;;;;12.14;100.00;99675.63;5067674;28;20444;-65
2023/10/25 02:08:23;;;;;;;5.17;3.53;;;;;;;12.20;100.00;99685.47;5071642;28;20397;-64
2023/10/25 02:10:52;;;;;;;6.33;3.87;;;;;;;12.16;100.00;99673.47;5062281;28;20465;-65
2023/10/25 02:13:21;;;;;;;5.23;3.80;;;;;;;12.18;100.00;99683.03;5066341;28;21004;-65
2023/10/25 02:15:54;;;;;;;7.17;5.00;;;;;;;12.19;100.00;99681.97;5068783;28;20790;-65
2023/10/25 02:18:23;;;;;;;8.97;5.50;;;12.20;99.90;;;12.02;100.00;99683.78;5069277;28;20408;-65
2023/10/25 02:20:52;;;;;;;7.80;5.50;;;;;;;11.96;100.00;99678.50;5067243;28;20422;-65
2023/10/25 02:23:21;;;;;;;11.37;6.00;;;12.00;99.90;;;11.86;100.00;99678.31;5076022;28;20466;-65
2023/10/25 02:25:50;;;;;;;12.03;5.57;;;;;;;11.97;100.00;99686.38;5067194;28;20791;-65
2023/10/25 02:28:19;;;;;;;10.73;4.80;;;;;;;11.93;100.00;99684.41;5075823;28;20408;-65
2023/10/25 02:30:47;;;;;;;12.13;6.00;;;;;;;11.97;100.00;99688.28;5073142;28;20969;-65
2023/10/25 02:33:18;;;;;;;9.87;5.80;;;11.80;99.90;;;11.86;100.00;99686.44;5068660;28;20527;-65
2023/10/25 02:35:50;;;;;;;13.17;6.60;;;;;;;11.92;100.00;99688.16;5072229;28;20931;-65
2023/10/25 02:38:19;;;;;;;13.17;7.10;;;11.80;99.90;;;11.85;100.00;99677.47;5079777;28;20429;-65
2023/10/25 02:40:47;;;;;;;14.10;6.93;;;11.80;99.90;;;11.94;100.00;99675.22;5075178;28;20438;-65
2023/10/25 02:43:16;;;;;;;11.47;6.60;;;;;;;11.98;100.00;99676.38;5074049;28;20468;-64
2023/10/25 02:45:45;;;;;;;14.77;5.70;;;11.80;99.90;;;11.92;100.00;99689.00;5073628;28;20926;-64
2023/10/25 02:48:14;;;;;;;15.47;5.60;;;;;;;11.94;100.00;99694.19;5073474;28;20894;-65
2023/10/25 02:50:45;;;;;;;11.13;5.07;;;;;;;11.97;100.00;99701.84;5072888;28;20449;-65
2023/10/25 02:53:14;;;;;;;13.50;6.13;;;;;;;12.10;100.00;99701.56;5073837;28;20425;-65
2023/10/25 02:55:47;;;;;;;10.50;6.17;;;;;;;12.10;100.00;99699.66;5072921;28;20445;-65
2023/10/25 02:58:15;;;;;;;10.07;5.10;;;;;;;12.00;100.00;99704.09;5072727;28;20477;-65
2023/10/25 03:00:44;;;;;;;7.33;5.20;;;;;;;12.00;100.00;99701.38;5073220;28;20534;-66
2023/10/25 03:03:13;;;;;;;8.83;6.60;;;;;;;12.11;100.00;99703.19;5072411;28;21074;-65
2023/10/25 03:05:44;;;;;;;6.90;6.13;;;;;;;11.98;100.00;99703.47;5071761;28;20447;-65
2023/10/25 03:08:12;;;;;;;7.70;6.03;;;;;;;12.09;100.00;99697.22;5063926;28;20429;-65
2023/10/25 03:10:41;;;;;;;12.13;6.40;;;11.90;99.90;;;11.87;100.00;99713.28;5075011;28;20434;-65
2023/10/25 03:13:10;;;;;;;10.20;6.83;;;;;;;11.90;100.00;99706.59;5067951;28;20478;-65
2023/10/25 03:15:39;;;;;;;8.77;6.40;;;;;;;12.14;100.00;99713.59;5070193;28;20429;-66
2023/10/25 03:18:08;;;;;;;9.10;5.27;;;;;;;12.10;100.00;99717.84;5070261;28;20434;-66
2023/10/25 03:20:37;;;;;;;11.77;7.20;;;11.80;99.90;;;11.94;100.00;99718.59;5066462;28;20420;-66
2023/10/25 03:23:07;;;;;;;9.57;6.43;;;;;;;11.89;100.00;99721.19;5072850;28;20557;-65
2023/10/25 03:25:36;;;;;;;8.20;5.73;;;;;;;11.89;100.00;99727.44;5078933;28;20445;-65
2023/10/25 03:28:05;;;;;;;7.83;5.00;;;11.90;99.90;;;11.85;100.00;99725.44;5068630;28;20498;-65
2023/10/25 03:30:33;;;;;;;8.70;5.60;;;11.80;99.90;;;11.77;100.00;99729.31;5073427;28;20405;-65
2023/10/25 03:33:02;;;;;;;9.20;5.07;;;;;;;11.72;100.00;99735.47;5071840;28;20466;-66
2023/10/25 03:35:31;;;;;;;9.47;6.47;;;;;;;11.79;100.00;99737.22;5069090;28;20401;-65
2023/10/25 03:38:00;;;;;;;10.60;7.20;;;;;;;11.89;100.00;99740.16;5067575;28;20869;-65
2023/10/25 03:40:30;;;;;;;12.03;7.47;;;;;;;11.89;100.00;99743.69;5067752;28;20409;-65
2023/10/25 03:42:59;;;;;;;10.87;7.77;;;;;;;11.87;100.00;99736.84;5067893;28;20480;-64
2023/10/25 03:45:28;;;;;;;12.13;6.10;;;;;;;11.91;100.00;99735.34;5070951;28;20433;-64
2023/10/25 03:47:57;;;;;;;14.27;6.40;;;;;;;12.03;100.00;99736.13;5074507;28;20423;-64
2023/10/25 03:50:26;;;;;;;10.30;6.23;;;;;;;12.04;100.00;99725.06;5074091;28;20438;-65
2023/10/25 03:52:56;;;;;;;10.60;5.60;;;;;;;11.97;100.00;99742.50;5072421;28;20454;-64
2023/10/25 03:55:24;;;;;;;9.40;6.07;;;;;;;12.04;100.00;99740.50;5064729;28;20401;-64
2023/10/25 03:57:55;;;;;;;12.60;7.83;;;;;;;12.00;100.00;99733.91;5079897;28;20445;-65
2023/10/25 04:00:23;;;;;;;11.80;5.60;;;;;;;11.96;100.00;99732.72;5068294;28;20423;-65
2023/10/25 04:02:52;;;;;;;10.50;5.87;;;;;;;11.93;100.00;99735.91;5070649;28;20429;-64
2023/10/25 04:05:21;;;;;;;11.77;6.23;;;11.70;99.90;;;11.77;100.00;99734.75;5070274;28;20401;-64
2023/10/25 04:07:52;;;;;;;11.57;6.13;;;11.70;99.90;;;11.74;100.00;99736.06;5068949;28;20784;-65
2023/10/25 04:10:21;;;;;;;13.40;5.70;;;;;;;11.86;100.00;99743.38;5073243;28;20687;-66
2023/10/25 04:12:51;;;;;;;12.23;6.90;;;;;;;11.84;100.00;99740.88;5071659;28;20442;-64
2023/10/25 04:15:21;;;;;;;8.43;6.50;;;11.70;99.90;;;11.72;100.00;99732.75;5064127;28;20992;-64
2023/10/25 04:17:50;;;;;;;9.57;6.10;;;11.70;99.90;;;11.73;100.00;99729.00;5064702;28;20463;-64
2023/10/25 04:20:18;;;;;;;9.10;5.90;;;11.60;99.90;;;11.64;100.00;99735.81;5074927;28;20542;-65
2023/10/25 04:22:47;;;;;;;14.10;6.87;;;11.60;99.90;;;11.53;100.00;99731.22;5058114;28;21119;-64
2023/10/25 04:25:15;;;;;;;9.63;6.00;;;11.50;99.90;;;11.43;100.00;99728.25;5070687;28;20405;-65
2023/10/25 04:27:44;;;;;;;8.67;6.60;;;;;;;11.34;100.00;99725.09;5069440;28;20401;-63
2023/10/25 04:30:13;;;;;;;11.70;7.03;;;;;;;11.33;100.00;99728.03;5077192;28;20826;-65
2023/10/25 04:32:46;;;;;;;8.27;5.07;;;;;;;11.32;100.00;99731.81;5064859;28;20433;-65
2023/10/25 04:35:15;;;;;;;7.17;4.97;;;11.40;99.90;;;11.13;100.00;99728.41;5070642;28;20779;-65
2023/10/25 04:37:43;;;;;;;13.30;7.37;;;11.20;99.90;;;11.08;100.00;99725.56;5075138;28;20468;-63
2023/10/25 04:40:15;;;;;;;10.23;6.40;;;11.10;99.90;;;10.99;100.00;99728.84;5068955;28;20415;-64
2023/10/25 04:42:46;;;;;;;10.97;7.03;;;11.00;99.90;;;10.89;100.00;99729.41;5073133;28;20432;-64
2023/10/25 04:45:15;;;;;;;11.30;5.63;;;11.00;99.90;;;10.82;100.00;99725.97;5072279;28;20827;-65
2023/10/25 04:47:47;;;;;;;14.10;5.03;;;10.90;99.90;;;10.64;100.00;99729.59;5069851;28;20426;-64
2023/10/25 04:50:15;;;;;;;9.60;5.33;;;10.80;99.90;;;10.59;100.00;99725.91;5071648;28;20450;-65
2023/10/25 04:52:44;;;;;;;8.07;5.43;;;10.70;99.90;;;10.54;100.00;99721.19;5074286;28;20429;-65
2023/10/25 04:55:12;;;;;;;12.20;6.30;;;10.60;99.90;;;10.58;100.00;99721.56;5072102;28;20413;-64
2023/10/25 04:57:41;;;;;;;8.27;5.80;;;10.60;99.90;;;10.47;100.00;99715.03;5061900;28;20467;-64
2023/10/25 05:00:12;;;;;;;6.87;4.43;;;10.60;99.90;;;10.44;100.00;99710.09;5066796;28;20932;-64
2023/10/25 05:02:40;;;;;;;11.27;5.70;;;10.50;99.90;;;10.25;100.00;99714.75;5074853;28;20450;-65
2023/10/25 05:05:11;;;;;;;9.43;5.47;;;10.40;99.90;;;10.29;100.00;99710.53;5072181;28;20433;-65
2023/10/25 05:07:40;;;;;;;10.60;6.40;;;10.40;99.90;;;10.28;100.00;99705.34;5066903;28;20941;-65
2023/10/25 05:10:12;;;;;;;10.80;6.27;;;10.40;99.90;;;10.34;100.00;99709.84;5069256;28;20532;-65
2023/10/25 05:12:44;;;;;;;8.63;6.53;;;10.40;99.90;;;10.23;100.00;99705.19;5072270;28;20460;-65
2023/10/25 05:15:15;;;;;;;11.27;6.40;;;10.30;99.90;;;10.24;100.00;99706.84;5065428;28;20776;-65
2023/10/25 05:17:47;;;;;;;13.57;9.00;;;10.30;99.90;;;10.19;100.00;99704.00;5069691;28;20488;-64
2023/10/25 05:20:18;;;;;;;10.30;5.90;;;10.30;99.90;;;10.17;100.00;99712.34;5066119;28;20441;-65
2023/10/25 05:22:52;;;;;;;15.00;5.40;;;10.20;99.90;;;10.01;100.00;99708.38;5063520;28;20433;-65
2023/10/25 05:25:22;;;;;;;11.10;6.23;;;10.10;99.90;;;10.07;100.00;99716.63;5065531;28;20943;-66
2023/10/25 05:27:52;;;;;;;10.17;5.83;;;10.10;99.90;;;10.06;100.00;99714.97;5066005;28;20430;-65
2023/10/25 05:30:22;;;;;;;16.87;7.00;;;10.10;99.90;;;10.02;100.00;99720.81;5070650;28;20433;-65
2023/10/25 05:32:58;;;;;;;10.17;6.10;;;10.10;99.90;;;10.10;100.00;99713.44;5066864;28;20448;-66
2023/10/25 05:35:29;;;;;;;8.57;5.47;;;10.10;99.90;;;10.11;100.00;99707.81;5072973;28;20811;-66
2023/10/25 05:37:59;;;;;;;10.20;5.33;;;10.10;99.90;;;10.04;100.00;99713.31;5067178;28;20458;-65
2023/10/25 05:40:28;;;;;;;13.70;8.60;;;10.10;99.90;;;9.97;100.00;99717.16;5068705;28;20405;-65
2023/10/25 05:43:01;;;;;;;12.47;5.53;;;10.00;99.90;;;9.90;100.00;99714.53;5067969;28;20809;-65
2023/10/25 05:45:30;;;;;;;9.70;6.27;;;10.00;99.90;;;9.88;100.00;99705.81;5068558;28;20422;-65
2023/10/25 05:47:59;;;;;;;11.00;6.00;;;9.90;99.90;;;9.85;100.00;99714.38;5065140;28;20784;-65
2023/10/25 05:50:30;;;;;;;12.30;6.50;;;9.90;99.90;;;9.84;100.00;99704.63;5065627;28;20768;-65
2023/10/25 05:52:59;;;;;;;18.37;6.93;;;9.90;99.90;;;9.81;100.00;99706.94;5075565;28;20446;-65
2023/10/25 05:55:29;;;;;;;15.60;6.93;;;9.90;99.90;;;9.86;100.00;99716.03;5073812;28;20975;-65
2023/10/25 05:57:58;;;;;;;9.50;6.00;;;9.90;99.90;;;9.94;100.00;99718.41;5070679;28;20195;-65
2023/10/25 06:00:28;;;;;;;8.50;5.40;;;9.90;99.90;;;9.94;100.00;99721.13;5071884;28;20401;-67
2023/10/25 06:02:57;;;;;;;11.87;7.20;;;9.90;99.90;;;9.84;100.00;99723.53;5073227;28;20966;-65
2023/10/25 06:05:34;;;;;;;10.53;6.47;;;9.90;99.90;;;9.97;100.00;99722.56;5068855;28;20481;-65
2023/10/25 06:08:03;;;;;;;13.10;7.67;;;9.90;99.90;;;10.11;100.00;99728.63;5070583;28;20400;-64
2023/10/25 06:10:33;;;;;;;13.10;7.10;;;10.00;99.90;;;10.16;100.00;99729.63;5070001;28;20416;-65
2023/10/25 06:13:09;;;;;;;7.93;5.93;;;10.10;99.90;;;10.11;100.00;99734.03;5077497;28;20428;-65
2023/10/25 06:15:38;;;;;;;14.37;7.23;;;10.10;99.90;;;10.21;100.00;99737.88;5072515;28;20449;-65
2023/10/25 06:18:07;;;;;;;11.43;6.97;;;10.10;99.90;;;10.18;100.00;99734.78;5063129;28;20474;-65
2023/10/25 06:20:37;;;;;;;11.97;6.13;;;10.10;99.90;;;10.31;100.00;99740.84;5074074;28;20455;-64
2023/10/25 06:23:06;;;;;;;13.70;7.00;;;10.20;99.90;;;10.45;100.00;99755.88;5076295;28;20492;-65
2023/10/25 06:25:35;;;;;;;10.87;5.30;;;10.30;99.90;;;10.40;100.00;99750.31;5076115;28;20408;-65
2023/10/25 06:28:04;;;;;;;12.77;6.90;;;10.30;99.90;;;10.30;100.00;99741.91;5070970;28;20508;-64
2023/10/25 06:30:34;;;;;;;10.27;6.30;;;10.20;99.90;;;10.64;100.00;99739.56;5070331;28;20417;-66
2023/10/25 06:33:04;;;;;;;12.80;7.57;;;10.50;99.90;;;10.70;100.00;99739.47;5074405;28;20429;-66
2023/10/25 06:35:33;;;;;;;13.37;7.57;;;10.50;99.90;;;10.68;100.00;99747.00;5073389;28;20409;-66
2023/10/25 06:38:04;;;;;;;15.10;6.80;;;10.60;99.90;;;10.69;100.00;99751.38;5068614;28;21222;-65
2023/10/25 06:40:33;;;;;;;14.87;8.27;;;10.50;99.90;;;10.81;100.00;99751.38;5066190;28;20438;-64
2023/10/25 06:43:02;;;;;;;16.80;8.00;;;10.60;99.90;;;10.77;100.00;99751.03;5073164;28;20433;-65
2023/10/25 06:45:32;;;;;;;12.33;7.20;;;10.60;99.90;;;10.89;100.00;99742.94;5073100;28;20434;-66
2023/10/25 06:48:01;;;;;;;14.77;8.20;;;10.70;99.90;;;10.94;100.00;99750.38;5073045;28;20437;-65
2023/10/25 06:50:31;;;;;;;13.40;8.67;;;10.80;99.90;;;10.99;100.00;99754.00;5070554;28;20405;-65
2023/10/25 06:53:01;;;;;;;17.60;7.90;;;10.80;99.90;;;11.07;100.00;99752.84;5070140;28;20426;-65
2023/10/25 06:55:32;;;;;;;13.87;7.27;;;10.90;99.90;;;11.08;100.00;99754.50;5070463;28;20437;-66
2023/10/25 06:58:01;;;;;;;14.33;8.30;;;10.90;99.90;;;11.22;100.00;99751.34;5069804;28;20588;-64
2023/10/25 07:00:30;;;;;;;15.47;9.07;;;11.10;99.90;;;11.34;100.00;99756.75;5074161;28;20429;-66
2023/10/25 07:03:04;;;;;;;11.83;6.23;;;11.20;99.90;;;11.37;100.00;99760.91;5073594;28;20429;-65
2023/10/25 07:05:35;;;;;;;10.60;6.83;;;11.20;99.90;;;11.28;100.00;99763.09;5071622;28;20483;-65
2023/10/25 07:08:07;;;;;;;12.27;6.93;;;11.10;99.90;;;11.39;100.00;99761.47;5066836;28;20405;-65
2023/10/25 07:10:38;;;;;;;14.97;9.27;;;11.20;99.90;;;11.42;100.00;99756.44;5064407;28;20430;-66
2023/10/25 07:13:07;;;;;;;14.20;8.27;;;11.30;99.90;;;11.34;100.00;99754.06;5069134;28;20425;-66
2023/10/25 07:15:36;;;;;;;12.80;8.83;;;11.20;99.90;;;11.26;100.00;99754.41;5067869;28;20907;-66
2023/10/25 07:18:05;;;;;;;18.63;8.63;;;11.20;99.90;;;11.16;100.00;99751.47;5073837;28;20458;-66
2023/10/25 07:20:33;;;;;;;15.07;8.30;;;11.10;99.90;;;11.15;100.00;99764.16;5072692;28;20809;-65
2023/10/25 07:23:02;;;;;;;12.73;8.77;;;11.00;99.90;;;11.24;100.00;99762.75;5069598;28;20451;-66
2023/10/25 07:25:30;;;;;;;19.47;8.73;;;11.10;99.90;;;11.24;100.00;99761.94;5066864;28;20432;-65
2023/10/25 07:28:00;;;;;;;12.77;7.80;;;11.10;99.90;;;11.32;100.00;99767.03;5068522;28;20402;-64
2023/10/25 07:30:29;;;;;;;12.50;7.37;;;11.20;99.90;;;11.23;100.00;99768.44;5072462;28;20773;-63
2023/10/25 07:32:57;;;;;;;12.63;7.93;;;11.10;99.90;;;11.23;100.00;99760.31;5072961;28;20504;-65
2023/10/25 07:35:26;;;;;;;15.63;7.40;;;11.10;99.90;;;11.39;100.00;99769.59;5070782;28;20450;-64
2023/10/25 07:37:55;;;;;;;10.97;8.20;;;11.20;99.90;;;11.42;100.00;99769.97;5071177;28;20775;-65
2023/10/25 07:40:23;;;;;;;13.90;8.03;;;11.20;99.90;;;11.55;100.00;99772.44;5076259;28;20409;-64
2023/10/25 07:42:52;;;;;;;24.20;11.20;;;11.40;99.90;;;11.69;100.00;99773.84;5069446;28;20992;-64
2023/10/25 07:45:22;;;;;;;13.10;7.43;;;11.40;99.90;;;11.71;100.00;99766.28;5074208;28;20476;-63
2023/10/25 07:47:51;;;;;;;15.50;8.07;;;;;;;11.91;100.00;99773.28;5074316;28;20767;-64
2023/10/25 07:50:20;;;;;;;17.40;9.03;;;;;;;12.33;100.00;99763.88;5072174;28;20488;-65
2023/10/25 07:52:51;;;;;;;18.80;8.83;;;;;;;12.41;100.00;99768.91;5075301;28;20789;-64
2023/10/25 07:55:20;;;;;;;12.23;7.77;;;;;;;12.54;100.00;99773.22;5073818;28;20425;-65
2023/10/25 07:58:10;;;;;;;12.57;6.67;;;;;;;12.77;100.00;99775.03;5068334;28;20963;-65
2023/10/25 08:00:57;;;;;;;14.23;10.00;;;;;;;12.52;100.00;99768.06;5065034;28;20430;-64
2023/10/25 08:03:28;;;;;;;15.87;9.63;;;;;;;12.73;100.00;99760.31;5071930;28;20425;-64
2023/10/25 08:05:58;;;;;;;14.07;7.70;;;;;;;12.93;100.00;99766.06;5075916;28;20541;-65
2023/10/25 08:08:27;;;;;;;12.70;7.50;;;;;;;13.06;100.00;99761.19;5075426;28;20419;-65
2023/10/25 08:11:03;;;;;;;19.73;7.53;;;;;;;13.21;100.00;99763.34;5073128;28;20401;-65
2023/10/25 08:13:33;;;;;;;9.73;7.83;;;;;;;13.18;100.00;99752.97;5068687;28;20455;-65
2023/10/25 08:16:04;;;;;;;12.20;7.30;;;;;;;13.38;100.00;99755.19;5059932;28;20405;-65
2023/10/25 08:18:33;;;;;;;11.43;8.37;;;;;;;13.26;100.00;99755.28;5070989;28;20437;-65
2023/10/25 08:21:03;;;;;;;9.53;6.73;;;;;;;13.48;100.00;99747.19;5068958;28;20756;-65
2023/10/25 08:23:34;;;;;;;9.57;6.17;;;;;;;13.64;100.00;99751.78;5063652;28;20509;-66
2023/10/25 08:26:04;;;;;;;10.93;7.47;;;;;;;13.32;100.00;99748.84;5065580;28;20401;-66
2023/10/25 08:28:32;;;;;;;10.87;7.00;;;;;;;13.34;100.00;99746.72;5059634;28;20431;-65
2023/10/25 08:31:11;;;;;;;8.30;5.13;;;;;;;13.32;100.00;99745.31;5068790;28;20398;-66
2023/10/25 08:33:41;;;;;;;7.70;5.57;;;;;;;13.48;100.00;99745.31;5071308;28;20834;-65
2023/10/25 08:36:10;;;;;;;7.57;6.27;;;;;;;13.67;100.00;99745.03;5069792;28;20425;-65
2023/10/25 08:38:39;;;;;;;9.60;5.63;;;;;;;13.81;100.00;99741.69;5069637;28;20517;-67
2023/10/25 08:41:10;;;;;;;10.40;7.13;;;;;;;13.44;100.00;99744.16;5070266;28;20405;-66
2023/10/25 08:43:40;;;;;;;16.43;8.23;;;;;;;13.37;100.00;99748.09;5071516;28;20416;-66
2023/10/25 08:46:11;;;;;;;16.07;6.17;;;;;;;13.53;100.00;99749.16;5073187;28;20405;-66
2023/10/25 08:48:40;;;;;;;9.97;5.57;;;;;;;13.53;100.00;99751.88;5071897;28;20430;-66
2023/10/25 08:51:11;;;;;;;11.80;6.37;;;;;;;13.68;100.00;99752.94;5072825;28;20442;-66
2023/10/25 08:53:41;;;;;;;13.13;6.17;;;;;;;13.76;100.00;99755.22;5068296;28;20517;-66
2023/10/25 08:56:10;;;;;;;9.73;7.00;;;;;;;13.91;100.00;99760.03;5072737;28;20751;-65
2023/10/25 08:58:39;;;;;;;9.63;6.77;;;;;;;14.08;99.89;99769.00;5061646;28;20396;-68
2023/10/25 09:01:08;;;;;;;10.00;6.10;;;;;;;14.14;97.96;99762.53;5066809;28;20505;-70
2023/10/25 09:03:43;;;;;;;14.77;9.43;;;;;;;13.90;99.49;99761.13;5069093;28;20957;-73
2023/10/25 09:06:23;;;;;;;8.90;6.23;;;;;;;14.07;100.00;99764.63;5071056;28;20400;-66
2023/10/25 09:09:02;;;;;;;11.20;6.57;;;;;;;13.93;100.00;99768.78;5068557;28;20419;-66
2023/10/25 09:11:41;;;;;;;10.20;6.80;;;;;;;14.23;100.00;99771.88;5069302;28;20401;-65
2023/10/25 09:14:11;;;;;;;13.33;7.17;;;;;;;13.92;100.00;99772.56;5070493;28;20432;-64
2023/10/25 09:16:42;;;;;;;10.97;6.90;;;;;;;13.92;100.00;99778.84;5071838;28;20408;-65
2023/10/25 09:19:18;;;;;;;9.27;5.47;;;;;;;13.40;100.00;99774.78;5072193;28;20452;-66
2023/10/25 09:21:47;;;;;;;11.20;6.80;;;;;;;13.42;100.00;99787.03;5086381;28;20476;-67
2023/10/25 09:24:16;;;;;;;9.73;6.90;;;;;;;13.28;100.00;99774.03;5065184;28;20427;-66
2023/10/25 09:26:46;;;;;;;11.97;7.23;;;;;;;13.31;100.00;99773.56;5066086;28;20412;-67
2023/10/25 09:29:25;;;;;;;13.43;7.17;;;;;;;13.11;100.00;99763.19;5075502;28;20488;-65
2023/10/25 09:32:19;;;;;;;10.17;5.47;;;;;;;13.19;100.00;99764.66;5064503;28;20416;-65
2023/10/25 09:34:50;;;;;;;8.60;5.70;;;;;;;13.15;100.00;99763.50;5069459;28;20574;-65
2023/10/25 09:37:19;;;;;;;10.77;6.27;;;;;;;13.35;100.00;99764.66;5071793;28;20437;-65
2023/10/25 09:39:48;;;;;;;11.40;6.40;;;;;;;13.34;100.00;99762.19;5071152;28;20435;-66
2023/10/25 09:42:19;;;;;;;9.00;6.47;;;;;;;13.51;100.00;99768.44;5074049;28;20425;-66
2023/10/25 09:44:50;;;;;;;10.50;6.50;;;;;;;13.56;100.00;99757.63;5068209;28;20434;-66
2023/10/25 09:47:20;;;;;;;11.60;6.93;;;;;;;13.61;99.36;99752.28;5068315;28;20439;-66
2023/10/25 09:49:56;;;;;;;7.80;6.10;;;;;;;13.83;98.96;99752.31;5066662;28;20488;-65
2023/10/25 09:52:29;;;;;;;7.70;5.53;;;;;;;14.02;96.15;99748.25;5062538;28;20436;-66
2023/10/25 09:55:04;;;;;;;11.77;5.70;;;;;;;14.23;94.27;99750.13;5065074;28;20446;-66
2023/10/25 09:57:35;;;;;;;8.00;6.57;;;;;;;14.33;92.34;99747.53;5068506;28;20492;-65
2023/10/25 10:00:08;;;;;;;10.83;6.50;;;;;;;14.54;92.75;99755.97;5065435;28;20465;-66
2023/10/25 10:02:45;;;;;;;9.10;6.77;;;;;;;14.73;92.94;99755.34;5069485;28;20429;-65
2023/10/25 10:05:24;;;;;;;10.77;5.03;;;;;;;14.79;90.97;99750.78;5068867;28;20430;-65
2023/10/25 10:08:04;;;;;;;7.00;5.63;;;;;;;14.46;92.50;99745.53;5071169;28;20400;-66
2023/10/25 10:10:39;;;;;;;10.70;6.30;;;;;;;14.30;95.70;99750.75;5072882;28;20428;-66
2023/10/25 10:13:18;;;;;;;7.43;5.90;;;;;;;14.26;94.01;99756.97;5068816;28;20455;-66
2023/10/25 10:16:00;;;;;;;8.50;5.43;;;;;;;14.18;97.09;99754.69;5074876;28;20405;-67
2023/10/25 10:18:32;;;;;;;8.17;6.50;;;;;;;14.35;95.13;99750.00;5065212;28;20479;-66
2023/10/25 10:21:03;;;;;;;10.07;7.37;;;;;;;14.12;97.74;99747.53;5072806;28;20493;-66
2023/10/25 10:23:38;;;;;;;8.80;5.67;;;;;;;14.35;94.31;99750.81;5070431;28;20424;-65
2023/10/25 10:26:08;;;;;;;6.07;5.20;;;;;;;14.15;94.25;99747.03;5069067;28;20401;-66
2023/10/25 10:28:41;;;;;;;8.30;4.77;;;;;;;14.47;93.78;99744.47;5072067;28;20755;-67
2023/10/25 10:31:11;;;;;;;8.27;5.77;;;;;;;14.63;89.93;99740.81;5066042;28;20423;-66
2023/10/25 10:33:45;;;;;;;6.70;5.07;;;;;;;14.70;89.12;99738.72;5061982;28;20447;-65
2023/10/25 10:36:26;;;;;;;5.20;3.70;;;;;;;14.29;91.00;99738.22;5067600;28;20408;-66
2023/10/25 10:39:17;;;;;;;7.17;4.20;;;;;;;14.50;91.18;99741.22;5076799;28;20427;-66
2023/10/25 10:41:46;;;;;;;7.73;5.30;;;;;;;14.50;91.77;99733.06;5070383;28;20473;-66
2023/10/25 10:44:15;;;;;;;10.93;5.43;;;;;;;14.62;89.52;99731.81;5061941;28;20481;-66
2023/10/25 10:46:51;;;;;;;7.70;5.07;;;;;;;14.60;90.65;99730.44;5072682;28;20496;-66
2023/10/25 10:49:21;;;;;;;9.77;6.70;;;;;;;14.43;90.96;99721.53;5075174;28;20401;-67
2023/10/25 10:51:52;;;;;;;7.10;5.73;;;;;;;14.56;90.28;99721.97;5073338;28;20850;-67
2023/10/25 10:54:21;;;;;;;7.77;5.20;;;;;;;14.59;90.11;99717.91;5079043;28;20425;-67
2023/10/25 10:56:50;;;;;;;7.80;4.57;;;;;;;14.58;89.38;99708.06;5071503;28;20414;-67
2023/10/25 10:59:19;;;;;;;9.40;5.80;;;;;;;14.57;90.23;99714.63;5073800;28;20503;-67
2023/10/25 11:01:49;;;;;;;5.57;4.93;;;;;;;14.57;90.75;99720.06;5073738;28;20451;-66
2023/10/25 11:04:18;;;;;;;10.87;5.63;;;;;;;14.72;89.92;99718.31;5073013;28;20983;-66
2023/10/25 11:06:47;;;;;;;6.40;5.50;;;;;;;14.78;90.11;99719.19;5072782;28;20950;-66
2023/10/25 11:09:21;;;;;;;8.17;5.90;;;;;;;15.00;91.66;99721.84;5075624;28;20431;-66